Bart Turecamo — WBR4464 — position and weather

sailwx.info

Track history (hours):
 
Tides and Currents Weather Stations Pressure Air Temp Water Temp Dewpoint Dewpoint Depression Visibility Wind Speed Wind Dir Waves Ship Positions

Bart Turecamo

Owner: Moran Towing Corporation, New Canaan, CT. More information available from US FCC via Universal Licensing System and Coast Guard Vessel Documentation Center.

Last reported at 2018-May-24 20:52 UTC. Time now 2018-May-24 21:14 UTC.
Position N 40°08' W 074°49'.

Length 33 m; draft 4 m.

Type: Tug. MMSI: 367177840.

Date/timePositionNaut miles runAvg speedWind from/ knotsBaromVisibWave heightAir tempDewpointWater temp
2018-May-24 20:52N 40°08' W 074°49'2 6.5
2018-May-24 20:30N 40°06' W 074°51'3 6.8
2018-May-24 20:00N 40°04' W 074°55'4 7.8
2018-May-24 19:30N 40°02' W 074°60'4 7.6
2018-May-24 19:00N 39°60' W 075°03'4 7.0
2018-May-24 18:30N 39°58' W 075°07'3 6.1
2018-May-24 18:00N 39°55' W 075°08'3 5.5
2018-May-24 17:30N 39°53' W 075°10'4 7.2
2018-May-24 17:00N 39°51' W 075°14'1 1.2
2018-May-24 16:30N 39°51' W 075°15'0 0.0
2018-May-24 16:00N 39°51' W 075°15'1 1.8
2018-May-24 15:30N 39°51' W 075°14'3 6.3
2018-May-24 15:00N 39°53' W 075°11'0 0.0
2018-May-24 14:30N 39°53' W 075°11'0 0.0
2018-May-24 14:00N 39°53' W 075°11'0 0.0
2018-May-24 13:30N 39°53' W 075°11'0 0.0
2018-May-24 09:00N 39°53' W 075°11'0 0.0
2018-May-24 08:30N 39°53' W 075°11'0 0.0
2018-May-24 08:00N 39°53' W 075°11'0 0.0
2018-May-24 07:30N 39°53' W 075°11'0 0.0
2018-May-24 07:00N 39°53' W 075°11'0 0.0
2018-May-24 06:04N 39°53' W 075°11'0 0.0
2018-May-24 05:29N 39°53' W 075°11'0 0.0
2018-May-24 05:00N 39°53' W 075°11'0 0.0
2018-May-24 04:29N 39°53' W 075°11'0 0.0
2018-May-24 04:00N 39°53' W 075°11'0 0.0
2018-May-24 02:50N 39°53' W 075°11'0 0.0
2018-May-24 02:30N 39°53' W 075°11'0 0.0
2018-May-24 02:00N 39°53' W 075°11'0 0.0
2018-May-24 01:30N 39°53' W 075°11'0 0.0
2018-May-24 01:00N 39°53' W 075°11'0 0.0
2018-May-24 00:30N 39°53' W 075°11'0 0.0
2018-May-24 00:00N 39°53' W 075°11'0 0.0
2018-May-23 23:24N 39°53' W 075°11'0 0.0
2018-May-23 23:00N 39°53' W 075°11'0 0.0
2018-May-23 22:30N 39°53' W 075°11'0 0.0
2018-May-23 22:00N 39°53' W 075°11'0 0.0
2018-May-23 21:30N 39°53' W 075°11'0 0.0
2018-May-23 21:00N 39°53' W 075°11'0 0.0
2018-May-23 20:30N 39°53' W 075°11'0 0.0
2018-May-23 20:00N 39°53' W 075°11'0 0.0
2018-May-23 19:30N 39°53' W 075°11'0 0.0
2018-May-23 19:00N 39°53' W 075°11'1 2.4
2018-May-23 18:30N 39°53' W 075°09'0 0.2
2018-May-23 18:00N 39°53' W 075°09'2 3.9
2018-May-23 17:30N 39°53' W 075°12'1 1.7
2018-May-23 17:00N 39°54' W 075°12'0 0.0
2018-May-23 16:30N 39°54' W 075°12'0 0.9
2018-May-23 16:00N 39°54' W 075°12'0 0.0
2018-May-23 15:30N 39°54' W 075°12'1 1.7
2018-May-23 15:01N 39°53' W 075°11'0 0.6
2018-May-23 14:30N 39°53' W 075°11'0 0.0
2018-May-23 14:00N 39°53' W 075°11'0 0.0
2018-May-23 13:30N 39°53' W 075°11'14 1.1
2018-May-23 01:00N 40°03' W 074°58'510.4
2018-May-23 00:30N 40°05' W 074°52'5 9.6
2018-May-22 23:58N 40°08' W 074°46'1 2.1
2018-May-22 23:29N 40°08' W 074°45'1 2.1
2018-May-22 22:59N 40°08' W 074°46'2 4.7
2018-May-22 22:30N 40°08' W 074°49'4 7.2
2018-May-22 21:59N 40°05' W 074°52'4 8.7
2018-May-22 21:30N 40°03' W 074°58'5 9.7
2018-May-22 21:00N 40°01' W 075°03'4 7.5
2018-May-22 20:30N 39°58' W 075°06'3 6.2
2018-May-22 20:01N 39°55' W 075°08'3 6.0
2018-May-22 19:30N 39°53' W 075°11'0 0.1
2018-May-22 19:00N 39°53' W 075°11'0 0.0
2018-May-22 18:30N 39°53' W 075°11'0 0.0
2018-May-22 18:00N 39°53' W 075°11'0 0.0
2018-May-22 17:30N 39°53' W 075°11'0 0.0
2018-May-22 17:00N 39°53' W 075°11'0 0.0
2018-May-22 16:30N 39°53' W 075°11'0 0.0
2018-May-22 16:00N 39°53' W 075°11'0 0.0
2018-May-22 15:30N 39°53' W 075°11'1 1.0
2018-May-22 15:00N 39°53' W 075°10'510.4
2018-May-22 14:30N 39°58' W 075°08'3 5.1
2018-May-22 14:01N 39°59' W 075°05'0 0.0
2018-May-22 13:31N 39°59' W 075°05'0 0.0
2018-May-22 13:00N 39°59' W 075°05'0 0.0
2018-May-22 12:31N 39°59' W 075°05'0 0.0
2018-May-22 12:00N 39°59' W 075°05'0 0.0
2018-May-22 11:30N 39°59' W 075°05'0 0.0
2018-May-22 11:00N 39°59' W 075°05'0 0.0
2018-May-22 10:30N 39°59' W 075°05'0 0.0
2018-May-22 10:00N 39°59' W 075°05'3 6.4
2018-May-22 09:30N 40°01' W 075°02'4 8.3
2018-May-22 09:00N 40°03' W 074°57'4 8.4
2018-May-22 08:31N 40°05' W 074°52'4 7.3
2018-May-22 08:00N 40°08' W 074°49'3 5.5
2018-May-22 07:30N 40°08' W 074°46'0 0.7
2018-May-22 07:00N 40°08' W 074°46'3 5.1
2018-May-22 06:30N 40°08' W 074°49'1 2.4
2018-May-22 06:00N 40°07' W 074°50'1 2.6
2018-May-22 05:31N 40°06' W 074°51'5 9.1
2018-May-22 05:00N 40°04' W 074°57'4 8.5
2018-May-22 04:30N 40°01' W 075°01'4 7.9
2018-May-22 04:00N 39°59' W 075°05'4 7.2
2018-May-22 03:31N 39°56' W 075°08'3 6.9
2018-May-22 03:01N 39°53' W 075°10'1 1.7
2018-May-22 02:30N 39°53' W 075°11'0 0.0
2018-May-22 02:00N 39°53' W 075°11'0 0.0
2018-May-22 01:30N 39°53' W 075°11'0 0.0
2018-May-22 01:00N 39°53' W 075°11'0 0.0
2018-May-22 00:30N 39°53' W 075°11'1 2.4
2018-May-22 00:00N 39°54' W 075°12'0 0.8
2018-May-21 23:30N 39°53' W 075°12'1 2.1
2018-May-21 23:00N 39°52' W 075°12'1 2.8
2018-May-21 22:30N 39°53' W 075°11'0 0.0
2018-May-21 22:00N 39°53' W 075°11'0 0.0
2018-May-21 21:30N 39°53' W 075°11'0 0.0
2018-May-21 21:00N 39°53' W 075°11'0 0.0
2018-May-21 20:30N 39°53' W 075°11'0 0.0
2018-May-21 20:00N 39°53' W 075°11'0 0.0
2018-May-21 19:30N 39°53' W 075°11'0 0.0
2018-May-21 19:00N 39°53' W 075°11'0 0.0
2018-May-21 18:29N 39°53' W 075°11'0 0.0
2018-May-21 18:00N 39°53' W 075°11'0 0.0
2018-May-21 17:30N 39°53' W 075°11'0 0.0
2018-May-21 17:01N 39°53' W 075°11'0 0.0
2018-May-21 16:31N 39°53' W 075°11'0 0.0
2018-May-21 16:01N 39°53' W 075°11'0 0.0
2018-May-21 15:30N 39°53' W 075°11'0 0.0
2018-May-21 15:00N 39°53' W 075°11'0 0.0
2018-May-21 14:30N 39°53' W 075°11'0 0.0
2018-May-21 14:00N 39°53' W 075°11'0 0.0
2018-May-21 13:31N 39°53' W 075°11'0 0.0
2018-May-21 13:00N 39°53' W 075°11'0 0.0
2018-May-21 12:31N 39°53' W 075°11'0 0.0
2018-May-21 12:00N 39°53' W 075°11'0 0.0
2018-May-21 11:31N 39°53' W 075°11'0 0.0
2018-May-21 11:00N 39°53' W 075°11'0 0.1
2018-May-21 10:30N 39°53' W 075°11'0 0.0
2018-May-21 10:00N 39°53' W 075°11'0 0.0
2018-May-21 09:30N 39°53' W 075°11'0 0.0
2018-May-21 09:01N 39°53' W 075°11'0 0.0
2018-May-21 08:30N 39°53' W 075°11'0 0.0
2018-May-21 08:00N 39°53' W 075°11'0 0.0
2018-May-21 07:30N 39°53' W 075°11'0 0.0
2018-May-21 07:01N 39°53' W 075°11'0 0.0
2018-May-21 06:30N 39°53' W 075°11'0 0.0
2018-May-21 06:00N 39°53' W 075°11'0 0.0
2018-May-21 05:31N 39°53' W 075°11'0 0.0
2018-May-21 05:00N 39°53' W 075°11'0 0.0
2018-May-21 04:30N 39°53' W 075°11'0 0.0
2018-May-21 04:00N 39°53' W 075°11'0 0.0
2018-May-21 03:30N 39°53' W 075°11'0 0.0
2018-May-21 03:00N 39°53' W 075°11'0 0.0
2018-May-21 02:30N 39°53' W 075°11'0 0.0
2018-May-21 02:01N 39°53' W 075°11'3 5.3
2018-May-21 01:30N 39°55' W 075°08'510.5
2018-May-21 01:00N 39°59' W 075°04'612.4
2018-May-21 00:30N 40°03' W 074°58'611.6
2018-May-21 00:00N 40°06' W 074°51'1 2.1
2018-May-20 23:31N 40°07' W 074°50'0 0.4
2018-May-20 23:01N 40°06' W 074°50'3 4.9
2018-May-20 22:30N 40°05' W 074°53'4 7.5
2018-May-20 22:01N 40°04' W 074°57'4 8.3
2018-May-20 21:30N 40°01' W 075°02'4 7.9
2018-May-20 21:00N 39°59' W 075°05'4 7.6
2018-May-20 20:30N 39°55' W 075°08'3 5.5
2018-May-20 20:00N 39°53' W 075°10'1 1.5
2018-May-20 19:30N 39°53' W 075°11'0 0.0
2018-May-20 19:00N 39°53' W 075°11'0 0.0
2018-May-20 18:30N 39°53' W 075°11'0 0.0
2018-May-20 18:00N 39°53' W 075°11'0 0.0
2018-May-20 17:30N 39°53' W 075°11'0 0.0
2018-May-20 17:00N 39°53' W 075°11'0 0.0
2018-May-20 16:30N 39°53' W 075°11'0 0.0
2018-May-20 16:00N 39°53' W 075°11'0 0.0
2018-May-20 15:31N 39°53' W 075°11'0 0.0
2018-May-20 15:00N 39°53' W 075°11'0 0.0
2018-May-20 14:30N 39°53' W 075°11'0 0.0
2018-May-20 14:00N 39°53' W 075°11'0 0.0
2018-May-20 13:30N 39°53' W 075°11'0 0.0
2018-May-20 13:00N 39°53' W 075°11'0 0.0
2018-May-20 12:30N 39°53' W 075°11'0 0.0
2018-May-20 12:01N 39°53' W 075°11'0 0.0
2018-May-20 11:31N 39°53' W 075°11'0 0.0
2018-May-20 11:01N 39°53' W 075°11'0 0.0
2018-May-20 10:30N 39°53' W 075°11'0 0.0
2018-May-20 10:00N 39°53' W 075°11'0 0.0
2018-May-20 09:31N 39°53' W 075°11'0 0.0
2018-May-20 09:01N 39°53' W 075°11'0 0.0
2018-May-20 08:30N 39°53' W 075°11'0 0.0
2018-May-20 08:00N 39°53' W 075°11'0 0.0
2018-May-20 07:30N 39°53' W 075°11'0 0.0
2018-May-20 07:01N 39°53' W 075°11'0 0.0
2018-May-20 06:30N 39°53' W 075°11'0 0.0
2018-May-20 06:00N 39°53' W 075°11'0 0.0
2018-May-20 05:30N 39°53' W 075°11'0 0.0
2018-May-20 05:00N 39°53' W 075°11'0 0.0
2018-May-20 04:30N 39°53' W 075°11'3 5.8
2018-May-20 04:00N 39°52' W 075°14'5 9.7
2018-May-20 03:31N 39°51' W 075°20'5 9.3
2018-May-20 03:00N 39°48' W 075°25'510.6
2018-May-20 02:31N 39°44' W 075°30'510.6
2018-May-20 02:01N 39°40' W 075°33'5 9.4
2018-May-20 01:30N 39°35' W 075°33'2 3.3
2018-May-20 01:00N 39°35' W 075°36'0 0.0
2018-May-20 00:30N 39°35' W 075°35'2 4.1
2018-May-20 00:01N 39°34' W 075°33'510.2
2018-May-19 23:31N 39°39' W 075°33'611.8
2018-May-19 23:01N 39°45' W 075°30'611.1
2018-May-19 22:30N 39°49' W 075°24'510.1
2018-May-19 22:00N 39°51' W 075°18'3 5.1
2018-May-19 21:30N 39°51' W 075°15'0 0.0
2018-May-19 21:01N 39°51' W 075°15'0 0.0
2018-May-19 20:30N 39°51' W 075°15'3 6.0
2018-May-19 20:01N 39°53' W 075°12'1 2.1
2018-May-19 19:30N 39°53' W 075°11'0 0.0
2018-May-19 19:00N 39°53' W 075°11'0 0.0
2018-May-19 18:30N 39°53' W 075°11'0 0.0
2018-May-19 18:00N 39°53' W 075°11'0 0.0
2018-May-19 17:30N 39°53' W 075°11'0 0.0
2018-May-19 17:00N 39°53' W 075°11'0 0.0
2018-May-19 16:31N 39°53' W 075°11'0 0.0
2018-May-19 16:00N 39°53' W 075°11'0 0.0
2018-May-19 15:30N 39°53' W 075°11'0 0.0
2018-May-19 15:01N 39°53' W 075°11'0 0.0
2018-May-19 14:30N 39°53' W 075°11'0 0.0
2018-May-19 14:00N 39°53' W 075°11'0 0.0
2018-May-19 13:30N 39°53' W 075°11'0 0.0
2018-May-19 13:00N 39°53' W 075°11'0 0.0
2018-May-19 12:30N 39°53' W 075°11'0 0.0
2018-May-19 11:59N 39°53' W 075°11'0 0.0
2018-May-19 11:30N 39°53' W 075°11'0 0.0
2018-May-19 11:01N 39°53' W 075°11'0 0.0
2018-May-19 10:30N 39°53' W 075°11'0 0.0
2018-May-19 10:00N 39°53' W 075°11'2 4.6
2018-May-19 09:30N 39°52' W 075°13'0 0.1
2018-May-19 09:01N 39°52' W 075°13'2 3.3
2018-May-19 08:30N 39°53' W 075°11'1 1.2
2018-May-19 08:00N 39°53' W 075°11'0 0.0
2018-May-19 07:30N 39°53' W 075°11'0 0.0
2018-May-19 07:00N 39°53' W 075°11'0 0.0
2018-May-19 06:31N 39°53' W 075°11'0 0.0
2018-May-19 06:00N 39°53' W 075°11'0 0.0
2018-May-19 05:30N 39°53' W 075°11'0 0.0
2018-May-19 05:00N 39°53' W 075°11'0 0.1
2018-May-19 04:30N 39°53' W 075°11'0 0.1
2018-May-19 04:00N 39°53' W 075°11'0 0.0
2018-May-19 03:31N 39°53' W 075°11'0 0.0
2018-May-19 03:00N 39°53' W 075°11'0 0.0
2018-May-19 02:30N 39°53' W 075°11'0 0.0
2018-May-19 02:00N 39°53' W 075°11'0 0.0
2018-May-19 01:30N 39°53' W 075°11'0 0.0
2018-May-19 01:00N 39°53' W 075°11'0 0.0
2018-May-19 00:30N 39°53' W 075°11'0 0.0
2018-May-19 00:00N 39°53' W 075°11'0 0.0
2018-May-18 23:30N 39°53' W 075°11'0 0.0
2018-May-18 23:00N 39°53' W 075°11'0 0.0
2018-May-18 22:30N 39°53' W 075°11'0 0.0
2018-May-18 22:00N 39°53' W 075°11'0 0.0
2018-May-18 21:30N 39°53' W 075°11'0 0.0
2018-May-18 21:00N 39°53' W 075°11'0 0.0
2018-May-18 20:30N 39°53' W 075°11'0 0.0
2018-May-18 20:00N 39°53' W 075°11'0 0.0
2018-May-18 19:30N 39°53' W 075°11'0 0.0
2018-May-18 19:00N 39°53' W 075°11'0 0.0
2018-May-18 18:30N 39°53' W 075°11'0 0.0
2018-May-18 18:01N 39°53' W 075°11'0 0.0
2018-May-18 17:30N 39°53' W 075°11'0 0.0
2018-May-18 17:00N 39°53' W 075°11'0 0.0
2018-May-18 16:30N 39°53' W 075°11'0 0.0
2018-May-18 16:00N 39°53' W 075°11'0 0.0
2018-May-18 15:31N 39°53' W 075°11'0 0.0
2018-May-18 15:00N 39°53' W 075°11'0 0.0
2018-May-18 14:30N 39°53' W 075°11'0 0.0
2018-May-18 14:00N 39°53' W 075°11'0 0.0
2018-May-18 13:31N 39°53' W 075°11'0 0.0
2018-May-18 13:00N 39°53' W 075°11'0 0.0
2018-May-18 12:30N 39°53' W 075°11'0 0.0
2018-May-18 12:00N 39°53' W 075°11'0 0.0
2018-May-18 11:31N 39°53' W 075°11'0 0.0
2018-May-18 11:00N 39°53' W 075°11'0 0.0
2018-May-18 10:30N 39°53' W 075°11'0 0.0
2018-May-18 10:00N 39°53' W 075°11'2 4.4
2018-May-18 09:30N 39°54' W 075°08'0 0.7
2018-May-18 09:01N 39°54' W 075°08'2 4.4
2018-May-18 08:30N 39°53' W 075°11'2 4.1
2018-May-18 08:00N 39°54' W 075°08'1 1.6
2018-May-18 07:30N 39°53' W 075°09'2 3.1
2018-May-18 07:00N 39°53' W 075°11'0 0.0
2018-May-18 06:30N 39°53' W 075°11'0 0.0
2018-May-18 06:00N 39°53' W 075°11'0 0.0
2018-May-18 05:30N 39°53' W 075°11'0 0.0
2018-May-18 05:00N 39°53' W 075°11'0 0.0
2018-May-18 04:30N 39°53' W 075°11'0 0.0
2018-May-18 04:00N 39°53' W 075°11'0 0.0
2018-May-18 03:30N 39°53' W 075°11'0 0.0
2018-May-18 03:01N 39°53' W 075°11'0 0.0
2018-May-18 02:28N 39°53' W 075°11'0 0.0
2018-May-18 02:00N 39°53' W 075°11'0 0.0
2018-May-18 01:30N 39°53' W 075°11'0 0.0
2018-May-18 01:00N 39°53' W 075°11'0 0.0
2018-May-18 00:30N 39°53' W 075°11'1 2.5
2018-May-18 00:01N 39°54' W 075°12'1 2.5
2018-May-17 23:30N 39°53' W 075°11'0 0.0
2018-May-17 22:58N 39°53' W 075°11'0 0.0
2018-May-17 22:31N 39°53' W 075°11'0 0.0
2018-May-17 22:00N 39°53' W 075°11'1 2.9
2018-May-17 21:31N 39°53' W 075°09'5 9.5
2018-May-17 21:00N 39°58' W 075°08'2 3.1
2018-May-17 20:30N 39°59' W 075°06'0 0.2
2018-May-17 20:00N 39°59' W 075°06'0 0.0
2018-May-17 19:31N 39°59' W 075°06'0 0.0
2018-May-17 19:00N 39°59' W 075°06'0 0.0
2018-May-17 18:30N 39°59' W 075°06'0 0.0
2018-May-17 18:01N 39°59' W 075°06'0 0.0
2018-May-17 17:31N 39°59' W 075°06'0 0.0
2018-May-17 17:00N 39°59' W 075°06'0 0.0
2018-May-17 16:30N 39°59' W 075°06'0 0.5
2018-May-17 16:01N 39°59' W 075°06'2 3.3
2018-May-17 15:30N 39°58' W 075°07'4 8.0
2018-May-17 15:01N 39°54' W 075°08'2 4.2
2018-May-17 14:31N 39°53' W 075°11'0 0.0
2018-May-17 14:01N 39°53' W 075°11'0 0.0
2018-May-17 13:30N 39°53' W 075°11'2 4.0
2018-May-17 13:01N 39°52' W 075°13'4 8.6
2018-May-17 12:30N 39°51' W 075°18'5 9.5
2018-May-17 12:00N 39°49' W 075°24'5 9.7
2018-May-17 11:31N 39°46' W 075°29'510.3
2018-May-17 11:00N 39°41' W 075°31'5 9.8
2018-May-17 10:30N 39°37' W 075°35'2 4.1
2018-May-17 10:01N 39°35' W 075°35'1 1.4
2018-May-17 09:30N 39°35' W 075°36'3 6.0
2018-May-17 09:00N 39°33' W 075°33'0 0.8
2018-May-17 08:30N 39°33' W 075°33'0 0.2
2018-May-17 08:01N 39°33' W 075°33'5 8.9
2018-May-17 07:30N 39°37' W 075°35'611.6
2018-May-17 07:00N 39°42' W 075°31'510.8
2018-May-17 06:30N 39°47' W 075°28'5 9.9
2018-May-17 06:00N 39°50' W 075°22'510.6
2018-May-17 05:31N 39°51' W 075°16'5 8.9
2018-May-17 05:00N 39°53' W 075°11'0 0.0
2018-May-17 04:30N 39°53' W 075°11'0 0.0
2018-May-17 04:00N 39°53' W 075°11'0 0.0
2018-May-17 03:30N 39°53' W 075°11'0 0.0
2018-May-17 03:01N 39°53' W 075°11'0 0.0
2018-May-17 02:30N 39°53' W 075°11'0 0.0
2018-May-17 02:00N 39°53' W 075°11'0 0.0
2018-May-17 01:30N 39°53' W 075°11'0 0.0
2018-May-17 01:01N 39°53' W 075°11'0 0.0
2018-May-17 00:31N 39°53' W 075°11'0 0.0
2018-May-16 23:59N 39°53' W 075°11'0 0.0
2018-May-16 23:30N 39°53' W 075°11'0 0.0
2018-May-16 23:00N 39°53' W 075°11'0 0.0
2018-May-16 22:30N 39°53' W 075°11'0 0.0
2018-May-16 22:00N 39°53' W 075°11'0 0.0
2018-May-16 21:30N 39°53' W 075°11'0 0.0
2018-May-16 21:01N 39°53' W 075°11'0 0.0
2018-May-16 20:30N 39°53' W 075°11'0 0.0
2018-May-16 20:00N 39°53' W 075°11'0 0.0
2018-May-16 19:30N 39°53' W 075°11'0 0.0
2018-May-16 19:00N 39°53' W 075°11'0 0.0
2018-May-16 18:30N 39°53' W 075°11'0 0.0
2018-May-16 18:00N 39°53' W 075°11'0 0.0
2018-May-16 17:30N 39°53' W 075°11'0 0.0
2018-May-16 17:00N 39°53' W 075°11'0 0.0
2018-May-16 16:30N 39°53' W 075°11'0 0.1
2018-May-16 16:00N 39°53' W 075°11'0 0.0
2018-May-16 15:30N 39°53' W 075°11'0 0.0
2018-May-16 15:00N 39°53' W 075°11'0 0.1
2018-May-16 14:30N 39°53' W 075°11'0 0.0
2018-May-16 14:00N 39°53' W 075°11'0 0.0
2018-May-16 13:30N 39°53' W 075°11'0 0.0
2018-May-16 13:00N 39°53' W 075°11'0 0.0
2018-May-16 12:30N 39°53' W 075°11'0 0.0
2018-May-16 12:00N 39°53' W 075°11'0 0.0
2018-May-16 11:31N 39°53' W 075°11'0 0.0
2018-May-16 11:00N 39°53' W 075°11'0 0.0
2018-May-16 10:30N 39°53' W 075°11'0 0.0
2018-May-16 10:00N 39°53' W 075°11'1 2.5
2018-May-16 09:30N 39°53' W 075°09'1 2.1
2018-May-16 09:00N 39°53' W 075°10'1 2.9
2018-May-16 08:30N 39°54' W 075°12'1 2.5
2018-May-16 08:00N 39°53' W 075°11'0 0.0
2018-May-16 07:31N 39°53' W 075°11'0 0.0
2018-May-16 07:00N 39°53' W 075°11'0 0.0
2018-May-16 06:30N 39°53' W 075°11'0 0.0
2018-May-16 06:00N 39°53' W 075°11'0 0.0
2018-May-16 05:30N 39°53' W 075°11'0 0.0
2018-May-16 05:00N 39°53' W 075°11'0 0.0
2018-May-16 04:30N 39°53' W 075°11'0 0.0
2018-May-16 04:00N 39°53' W 075°11'0 0.0
2018-May-16 03:30N 39°53' W 075°11'0 0.0
2018-May-16 03:00N 39°53' W 075°11'0 0.0
2018-May-16 02:30N 39°53' W 075°11'0 0.0
2018-May-16 02:00N 39°53' W 075°11'0 0.0
2018-May-16 01:30N 39°53' W 075°11'0 0.0
2018-May-16 01:00N 39°53' W 075°11'0 0.0
2018-May-16 00:30N 39°53' W 075°11'0 0.0
2018-May-16 00:00N 39°53' W 075°11'0 0.0
2018-May-15 23:30N 39°53' W 075°11'0 0.0
2018-May-15 23:00N 39°53' W 075°11'0 0.0
2018-May-15 22:30N 39°53' W 075°11'0 0.0
2018-May-15 22:00N 39°53' W 075°11'0 0.0
2018-May-15 21:30N 39°53' W 075°11'0 0.0
2018-May-15 21:00N 39°53' W 075°11'2 4.1
2018-May-15 20:30N 39°54' W 075°08'5 9.8
2018-May-15 20:00N 39°58' W 075°06'0 0.9
2018-May-15 19:30N 39°59' W 075°06'0 0.4
2018-May-15 18:59N 39°59' W 075°06'0 0.0
2018-May-15 18:30N 39°59' W 075°06'1 2.4
2018-May-15 18:00N 39°58' W 075°07'4 7.8
2018-May-15 17:30N 39°54' W 075°08'2 4.7
2018-May-15 17:01N 39°53' W 075°11'0 0.0
2018-May-15 16:30N 39°53' W 075°11'0 0.0
2018-May-15 16:00N 39°53' W 075°11'0 0.0
2018-May-15 15:30N 39°53' W 075°11'0 0.0
2018-May-15 15:01N 39°53' W 075°11'0 0.0
2018-May-15 14:31N 39°53' W 075°11'0 0.0
2018-May-15 14:01N 39°53' W 075°11'2 4.4
2018-May-15 13:30N 39°54' W 075°08'0 0.3
2018-May-15 13:00N 39°54' W 075°08'2 3.2
2018-May-15 12:28N 39°53' W 075°09'1 1.9
2018-May-15 11:59N 39°53' W 075°11'0 0.0
2018-May-15 11:30N 39°53' W 075°11'0 0.0
2018-May-15 11:01N 39°53' W 075°11'0 0.0
2018-May-15 10:31N 39°53' W 075°11'0 0.0
2018-May-15 10:01N 39°53' W 075°11'0 0.0
2018-May-15 09:30N 39°53' W 075°11'0 0.0
2018-May-15 09:00N 39°53' W 075°11'0 0.0
2018-May-15 08:30N 39°53' W 075°11'0 0.0
2018-May-15 08:00N 39°53' W 075°11'0 0.9
2018-May-15 07:30N 39°53' W 075°11'4 8.9
2018-May-15 07:00N 39°51' W 075°16'5 9.5
2018-May-15 06:30N 39°50' W 075°22'3 5.3
2018-May-15 06:00N 39°48' W 075°25'0 0.0
2018-May-15 05:30N 39°48' W 075°25'1 1.3
2018-May-15 05:00N 39°48' W 075°26'1 2.8
2018-May-15 04:30N 39°49' W 075°24'5 9.5
2018-May-15 04:00N 39°51' W 075°19'5 9.5
2018-May-15 03:31N 39°52' W 075°13'2 3.8
2018-May-15 03:00N 39°53' W 075°11'0 0.0
2018-May-15 02:30N 39°53' W 075°11'0 0.0
2018-May-15 02:01N 39°53' W 075°11'0 0.0
2018-May-15 01:31N 39°53' W 075°11'0 0.0
2018-May-15 01:00N 39°53' W 075°11'0 0.0
2018-May-15 00:31N 39°53' W 075°11'0 0.0
2018-May-15 00:01N 39°53' W 075°11'2 4.5
2018-May-14 23:31N 39°54' W 075°08'5 9.5
2018-May-14 23:00N 39°59' W 075°06'0 0.3
2018-May-14 22:30N 39°59' W 075°06'0 0.0
2018-May-14 22:00N 39°59' W 075°06'0 0.0
2018-May-14 21:30N 39°59' W 075°06'0 0.0
2018-May-14 21:00N 39°59' W 075°06'  
Track history (hours):
 
Tides and Currents Weather Stations Pressure Air Temp Water Temp Dewpoint Dewpoint Depression Visibility Wind Speed Wind Dir Waves Ship Positions

Bart Turecamo

Owner: Moran Towing Corporation, New Canaan, CT. More information available from US FCC via Universal Licensing System and Coast Guard Vessel Documentation Center.

Last reported at 2018-May-24 20:52 UTC. Time now 2018-May-24 21:14 UTC.
Position N 40°08' W 074°49'.

Length 33 m; draft 4 m.

Type: Tug. MMSI: 367177840.

Date/timePositionNaut miles runAvg speedWind from/ knotsBaromVisibWave heightAir tempDewpointWater temp
2018-May-24 20:52N 40°08' W 074°49'2 6.5
2018-May-24 20:30N 40°06' W 074°51'3 6.8
2018-May-24 20:00N 40°04' W 074°55'4 7.8
2018-May-24 19:30N 40°02' W 074°60'4 7.6
2018-May-24 19:00N 39°60' W 075°03'4 7.0
2018-May-24 18:30N 39°58' W 075°07'3 6.1
2018-May-24 18:00N 39°55' W 075°08'3 5.5
2018-May-24 17:30N 39°53' W 075°10'4 7.2
2018-May-24 17:00N 39°51' W 075°14'1 1.2
2018-May-24 16:30N 39°51' W 075°15'0 0.0
2018-May-24 16:00N 39°51' W 075°15'1 1.8
2018-May-24 15:30N 39°51' W 075°14'3 6.3
2018-May-24 15:00N 39°53' W 075°11'0 0.0
2018-May-24 14:30N 39°53' W 075°11'0 0.0
2018-May-24 14:00N 39°53' W 075°11'0 0.0
2018-May-24 13:30N 39°53' W 075°11'0 0.0
2018-May-24 09:00N 39°53' W 075°11'0 0.0
2018-May-24 08:30N 39°53' W 075°11'0 0.0
2018-May-24 08:00N 39°53' W 075°11'0 0.0
2018-May-24 07:30N 39°53' W 075°11'0 0.0
2018-May-24 07:00N 39°53' W 075°11'0 0.0
2018-May-24 06:04N 39°53' W 075°11'0 0.0
2018-May-24 05:29N 39°53' W 075°11'0 0.0
2018-May-24 05:00N 39°53' W 075°11'0 0.0
2018-May-24 04:29N 39°53' W 075°11'0 0.0
2018-May-24 04:00N 39°53' W 075°11'0 0.0
2018-May-24 02:50N 39°53' W 075°11'0 0.0
2018-May-24 02:30N 39°53' W 075°11'0 0.0
2018-May-24 02:00N 39°53' W 075°11'0 0.0
2018-May-24 01:30N 39°53' W 075°11'0 0.0
2018-May-24 01:00N 39°53' W 075°11'0 0.0
2018-May-24 00:30N 39°53' W 075°11'0 0.0
2018-May-24 00:00N 39°53' W 075°11'0 0.0
2018-May-23 23:24N 39°53' W 075°11'0 0.0
2018-May-23 23:00N 39°53' W 075°11'0 0.0
2018-May-23 22:30N 39°53' W 075°11'0 0.0
2018-May-23 22:00N 39°53' W 075°11'0 0.0
2018-May-23 21:30N 39°53' W 075°11'0 0.0
2018-May-23 21:00N 39°53' W 075°11'0 0.0
2018-May-23 20:30N 39°53' W 075°11'0 0.0
2018-May-23 20:00N 39°53' W 075°11'0 0.0
2018-May-23 19:30N 39°53' W 075°11'0 0.0
2018-May-23 19:00N 39°53' W 075°11'1 2.4
2018-May-23 18:30N 39°53' W 075°09'0 0.2
2018-May-23 18:00N 39°53' W 075°09'2 3.9
2018-May-23 17:30N 39°53' W 075°12'1 1.7
2018-May-23 17:00N 39°54' W 075°12'0 0.0
2018-May-23 16:30N 39°54' W 075°12'0 0.9
2018-May-23 16:00N 39°54' W 075°12'0 0.0
2018-May-23 15:30N 39°54' W 075°12'1 1.7
2018-May-23 15:01N 39°53' W 075°11'0 0.6
2018-May-23 14:30N 39°53' W 075°11'0 0.0
2018-May-23 14:00N 39°53' W 075°11'0 0.0
2018-May-23 13:30N 39°53' W 075°11'14 1.1
2018-May-23 01:00N 40°03' W 074°58'510.4
2018-May-23 00:30N 40°05' W 074°52'5 9.6
2018-May-22 23:58N 40°08' W 074°46'1 2.1
2018-May-22 23:29N 40°08' W 074°45'1 2.1
2018-May-22 22:59N 40°08' W 074°46'2 4.7
2018-May-22 22:30N 40°08' W 074°49'4 7.2
2018-May-22 21:59N 40°05' W 074°52'4 8.7
2018-May-22 21:30N 40°03' W 074°58'5 9.7
2018-May-22 21:00N 40°01' W 075°03'4 7.5
2018-May-22 20:30N 39°58' W 075°06'3 6.2
2018-May-22 20:01N 39°55' W 075°08'3 6.0
2018-May-22 19:30N 39°53' W 075°11'0 0.1
2018-May-22 19:00N 39°53' W 075°11'0 0.0
2018-May-22 18:30N 39°53' W 075°11'0 0.0
2018-May-22 18:00N 39°53' W 075°11'0 0.0
2018-May-22 17:30N 39°53' W 075°11'0 0.0
2018-May-22 17:00N 39°53' W 075°11'0 0.0
2018-May-22 16:30N 39°53' W 075°11'0 0.0
2018-May-22 16:00N 39°53' W 075°11'0 0.0
2018-May-22 15:30N 39°53' W 075°11'1 1.0
2018-May-22 15:00N 39°53' W 075°10'510.4
2018-May-22 14:30N 39°58' W 075°08'3 5.1
2018-May-22 14:01N 39°59' W 075°05'0 0.0
2018-May-22 13:31N 39°59' W 075°05'0 0.0
2018-May-22 13:00N 39°59' W 075°05'0 0.0
2018-May-22 12:31N 39°59' W 075°05'0 0.0
2018-May-22 12:00N 39°59' W 075°05'0 0.0
2018-May-22 11:30N 39°59' W 075°05'0 0.0
2018-May-22 11:00N 39°59' W 075°05'0 0.0
2018-May-22 10:30N 39°59' W 075°05'0 0.0
2018-May-22 10:00N 39°59' W 075°05'3 6.4
2018-May-22 09:30N 40°01' W 075°02'4 8.3
2018-May-22 09:00N 40°03' W 074°57'4 8.4
2018-May-22 08:31N 40°05' W 074°52'4 7.3
2018-May-22 08:00N 40°08' W 074°49'3 5.5
2018-May-22 07:30N 40°08' W 074°46'0 0.7
2018-May-22 07:00N 40°08' W 074°46'3 5.1
2018-May-22 06:30N 40°08' W 074°49'1 2.4
2018-May-22 06:00N 40°07' W 074°50'1 2.6
2018-May-22 05:31N 40°06' W 074°51'5 9.1
2018-May-22 05:00N 40°04' W 074°57'4 8.5
2018-May-22 04:30N 40°01' W 075°01'4 7.9
2018-May-22 04:00N 39°59' W 075°05'4 7.2
2018-May-22 03:31N 39°56' W 075°08'3 6.9
2018-May-22 03:01N 39°53' W 075°10'1 1.7
2018-May-22 02:30N 39°53' W 075°11'0 0.0
2018-May-22 02:00N 39°53' W 075°11'0 0.0
2018-May-22 01:30N 39°53' W 075°11'0 0.0
2018-May-22 01:00N 39°53' W 075°11'0 0.0
2018-May-22 00:30N 39°53' W 075°11'1 2.4
2018-May-22 00:00N 39°54' W 075°12'0 0.8
2018-May-21 23:30N 39°53' W 075°12'1 2.1
2018-May-21 23:00N 39°52' W 075°12'1 2.8
2018-May-21 22:30N 39°53' W 075°11'0 0.0
2018-May-21 22:00N 39°53' W 075°11'0 0.0
2018-May-21 21:30N 39°53' W 075°11'0 0.0
2018-May-21 21:00N 39°53' W 075°11'0 0.0
2018-May-21 20:30N 39°53' W 075°11'0 0.0
2018-May-21 20:00N 39°53' W 075°11'0 0.0
2018-May-21 19:30N 39°53' W 075°11'0 0.0
2018-May-21 19:00N 39°53' W 075°11'0 0.0
2018-May-21 18:29N 39°53' W 075°11'0 0.0
2018-May-21 18:00N 39°53' W 075°11'0 0.0
2018-May-21 17:30N 39°53' W 075°11'0 0.0
2018-May-21 17:01N 39°53' W 075°11'0 0.0
2018-May-21 16:31N 39°53' W 075°11'0 0.0
2018-May-21 16:01N 39°53' W 075°11'0 0.0
2018-May-21 15:30N 39°53' W 075°11'0 0.0
2018-May-21 15:00N 39°53' W 075°11'0 0.0
2018-May-21 14:30N 39°53' W 075°11'0 0.0
2018-May-21 14:00N 39°53' W 075°11'0 0.0
2018-May-21 13:31N 39°53' W 075°11'0 0.0
2018-May-21 13:00N 39°53' W 075°11'0 0.0
2018-May-21 12:31N 39°53' W 075°11'0 0.0
2018-May-21 12:00N 39°53' W 075°11'0 0.0
2018-May-21 11:31N 39°53' W 075°11'0 0.0
2018-May-21 11:00N 39°53' W 075°11'0 0.1
2018-May-21 10:30N 39°53' W 075°11'0 0.0
2018-May-21 10:00N 39°53' W 075°11'0 0.0
2018-May-21 09:30N 39°53' W 075°11'0 0.0
2018-May-21 09:01N 39°53' W 075°11'0 0.0
2018-May-21 08:30N 39°53' W 075°11'0 0.0
2018-May-21 08:00N 39°53' W 075°11'0 0.0
2018-May-21 07:30N 39°53' W 075°11'0 0.0
2018-May-21 07:01N 39°53' W 075°11'0 0.0
2018-May-21 06:30N 39°53' W 075°11'0 0.0
2018-May-21 06:00N 39°53' W 075°11'0 0.0
2018-May-21 05:31N 39°53' W 075°11'0 0.0
2018-May-21 05:00N 39°53' W 075°11'0 0.0
2018-May-21 04:30N 39°53' W 075°11'0 0.0
2018-May-21 04:00N 39°53' W 075°11'0 0.0
2018-May-21 03:30N 39°53' W 075°11'0 0.0
2018-May-21 03:00N 39°53' W 075°11'0 0.0
2018-May-21 02:30N 39°53' W 075°11'0 0.0
2018-May-21 02:01N 39°53' W 075°11'3 5.3
2018-May-21 01:30N 39°55' W 075°08'510.5
2018-May-21 01:00N 39°59' W 075°04'612.4
2018-May-21 00:30N 40°03' W 074°58'611.6
2018-May-21 00:00N 40°06' W 074°51'1 2.1
2018-May-20 23:31N 40°07' W 074°50'0 0.4
2018-May-20 23:01N 40°06' W 074°50'3 4.9
2018-May-20 22:30N 40°05' W 074°53'4 7.5
2018-May-20 22:01N 40°04' W 074°57'4 8.3
2018-May-20 21:30N 40°01' W 075°02'4 7.9
2018-May-20 21:00N 39°59' W 075°05'4 7.6
2018-May-20 20:30N 39°55' W 075°08'3 5.5
2018-May-20 20:00N 39°53' W 075°10'1 1.5
2018-May-20 19:30N 39°53' W 075°11'0 0.0
2018-May-20 19:00N 39°53' W 075°11'0 0.0
2018-May-20 18:30N 39°53' W 075°11'0 0.0
2018-May-20 18:00N 39°53' W 075°11'0 0.0
2018-May-20 17:30N 39°53' W 075°11'0 0.0
2018-May-20 17:00N 39°53' W 075°11'0 0.0
2018-May-20 16:30N 39°53' W 075°11'0 0.0
2018-May-20 16:00N 39°53' W 075°11'0 0.0
2018-May-20 15:31N 39°53' W 075°11'0 0.0
2018-May-20 15:00N 39°53' W 075°11'0 0.0
2018-May-20 14:30N 39°53' W 075°11'0 0.0
2018-May-20 14:00N 39°53' W 075°11'0 0.0
2018-May-20 13:30N 39°53' W 075°11'0 0.0
2018-May-20 13:00N 39°53' W 075°11'0 0.0
2018-May-20 12:30N 39°53' W 075°11'0 0.0
2018-May-20 12:01N 39°53' W 075°11'0 0.0
2018-May-20 11:31N 39°53' W 075°11'0 0.0
2018-May-20 11:01N 39°53' W 075°11'0 0.0
2018-May-20 10:30N 39°53' W 075°11'0 0.0
2018-May-20 10:00N 39°53' W 075°11'0 0.0
2018-May-20 09:31N 39°53' W 075°11'0 0.0
2018-May-20 09:01N 39°53' W 075°11'0 0.0
2018-May-20 08:30N 39°53' W 075°11'0 0.0
2018-May-20 08:00N 39°53' W 075°11'0 0.0
2018-May-20 07:30N 39°53' W 075°11'0 0.0
2018-May-20 07:01N 39°53' W 075°11'0 0.0
2018-May-20 06:30N 39°53' W 075°11'0 0.0
2018-May-20 06:00N 39°53' W 075°11'0 0.0
2018-May-20 05:30N 39°53' W 075°11'0 0.0
2018-May-20 05:00N 39°53' W 075°11'0 0.0
2018-May-20 04:30N 39°53' W 075°11'3 5.8
2018-May-20 04:00N 39°52' W 075°14'5 9.7
2018-May-20 03:31N 39°51' W 075°20'5 9.3
2018-May-20 03:00N 39°48' W 075°25'510.6
2018-May-20 02:31N 39°44' W 075°30'510.6
2018-May-20 02:01N 39°40' W 075°33'5 9.4
2018-May-20 01:30N 39°35' W 075°33'2 3.3
2018-May-20 01:00N 39°35' W 075°36'0 0.0
2018-May-20 00:30N 39°35' W 075°35'2 4.1
2018-May-20 00:01N 39°34' W 075°33'510.2
2018-May-19 23:31N 39°39' W 075°33'611.8
2018-May-19 23:01N 39°45' W 075°30'611.1
2018-May-19 22:30N 39°49' W 075°24'510.1
2018-May-19 22:00N 39°51' W 075°18'3 5.1
2018-May-19 21:30N 39°51' W 075°15'0 0.0
2018-May-19 21:01N 39°51' W 075°15'0 0.0
2018-May-19 20:30N 39°51' W 075°15'3 6.0
2018-May-19 20:01N 39°53' W 075°12'1 2.1
2018-May-19 19:30N 39°53' W 075°11'0 0.0
2018-May-19 19:00N 39°53' W 075°11'0 0.0
2018-May-19 18:30N 39°53' W 075°11'0 0.0
2018-May-19 18:00N 39°53' W 075°11'0 0.0
2018-May-19 17:30N 39°53' W 075°11'0 0.0
2018-May-19 17:00N 39°53' W 075°11'0 0.0
2018-May-19 16:31N 39°53' W 075°11'0 0.0
2018-May-19 16:00N 39°53' W 075°11'0 0.0
2018-May-19 15:30N 39°53' W 075°11'0 0.0
2018-May-19 15:01N 39°53' W 075°11'0 0.0
2018-May-19 14:30N 39°53' W 075°11'0 0.0
2018-May-19 14:00N 39°53' W 075°11'0 0.0
2018-May-19 13:30N 39°53' W 075°11'0 0.0
2018-May-19 13:00N 39°53' W 075°11'0 0.0
2018-May-19 12:30N 39°53' W 075°11'0 0.0
2018-May-19 11:59N 39°53' W 075°11'0 0.0
2018-May-19 11:30N 39°53' W 075°11'0 0.0
2018-May-19 11:01N 39°53' W 075°11'0 0.0
2018-May-19 10:30N 39°53' W 075°11'0 0.0
2018-May-19 10:00N 39°53' W 075°11'2 4.6
2018-May-19 09:30N 39°52' W 075°13'0 0.1
2018-May-19 09:01N 39°52' W 075°13'2 3.3
2018-May-19 08:30N 39°53' W 075°11'1 1.2
2018-May-19 08:00N 39°53' W 075°11'0 0.0
2018-May-19 07:30N 39°53' W 075°11'0 0.0
2018-May-19 07:00N 39°53' W 075°11'0 0.0
2018-May-19 06:31N 39°53' W 075°11'0 0.0
2018-May-19 06:00N 39°53' W 075°11'0 0.0
2018-May-19 05:30N 39°53' W 075°11'0 0.0
2018-May-19 05:00N 39°53' W 075°11'0 0.1
2018-May-19 04:30N 39°53' W 075°11'0 0.1
2018-May-19 04:00N 39°53' W 075°11'0 0.0
2018-May-19 03:31N 39°53' W 075°11'0 0.0
2018-May-19 03:00N 39°53' W 075°11'0 0.0
2018-May-19 02:30N 39°53' W 075°11'0 0.0
2018-May-19 02:00N 39°53' W 075°11'0 0.0
2018-May-19 01:30N 39°53' W 075°11'0 0.0
2018-May-19 01:00N 39°53' W 075°11'0 0.0
2018-May-19 00:30N 39°53' W 075°11'0 0.0
2018-May-19 00:00N 39°53' W 075°11'0 0.0
2018-May-18 23:30N 39°53' W 075°11'0 0.0
2018-May-18 23:00N 39°53' W 075°11'0 0.0
2018-May-18 22:30N 39°53' W 075°11'0 0.0
2018-May-18 22:00N 39°53' W 075°11'0 0.0
2018-May-18 21:30N 39°53' W 075°11'0 0.0
2018-May-18 21:00N 39°53' W 075°11'0 0.0
2018-May-18 20:30N 39°53' W 075°11'0 0.0
2018-May-18 20:00N 39°53' W 075°11'0 0.0
2018-May-18 19:30N 39°53' W 075°11'0 0.0
2018-May-18 19:00N 39°53' W 075°11'0 0.0
2018-May-18 18:30N 39°53' W 075°11'0 0.0
2018-May-18 18:01N 39°53' W 075°11'0 0.0
2018-May-18 17:30N 39°53' W 075°11'0 0.0
2018-May-18 17:00N 39°53' W 075°11'0 0.0
2018-May-18 16:30N 39°53' W 075°11'0 0.0
2018-May-18 16:00N 39°53' W 075°11'0 0.0
2018-May-18 15:31N 39°53' W 075°11'0 0.0
2018-May-18 15:00N 39°53' W 075°11'0 0.0
2018-May-18 14:30N 39°53' W 075°11'0 0.0
2018-May-18 14:00N 39°53' W 075°11'0 0.0
2018-May-18 13:31N 39°53' W 075°11'0 0.0
2018-May-18 13:00N 39°53' W 075°11'0 0.0
2018-May-18 12:30N 39°53' W 075°11'0 0.0
2018-May-18 12:00N 39°53' W 075°11'0 0.0
2018-May-18 11:31N 39°53' W 075°11'0 0.0
2018-May-18 11:00N 39°53' W 075°11'0 0.0
2018-May-18 10:30N 39°53' W 075°11'0 0.0
2018-May-18 10:00N 39°53' W 075°11'2 4.4
2018-May-18 09:30N 39°54' W 075°08'0 0.7
2018-May-18 09:01N 39°54' W 075°08'2 4.4
2018-May-18 08:30N 39°53' W 075°11'2 4.1
2018-May-18 08:00N 39°54' W 075°08'1 1.6
2018-May-18 07:30N 39°53' W 075°09'2 3.1
2018-May-18 07:00N 39°53' W 075°11'0 0.0
2018-May-18 06:30N 39°53' W 075°11'0 0.0
2018-May-18 06:00N 39°53' W 075°11'0 0.0
2018-May-18 05:30N 39°53' W 075°11'0 0.0
2018-May-18 05:00N 39°53' W 075°11'0 0.0
2018-May-18 04:30N 39°53' W 075°11'0 0.0
2018-May-18 04:00N 39°53' W 075°11'0 0.0
2018-May-18 03:30N 39°53' W 075°11'0 0.0
2018-May-18 03:01N 39°53' W 075°11'0 0.0
2018-May-18 02:28N 39°53' W 075°11'0 0.0
2018-May-18 02:00N 39°53' W 075°11'0 0.0
2018-May-18 01:30N 39°53' W 075°11'0 0.0
2018-May-18 01:00N 39°53' W 075°11'0 0.0
2018-May-18 00:30N 39°53' W 075°11'1 2.5
2018-May-18 00:01N 39°54' W 075°12'1 2.5
2018-May-17 23:30N 39°53' W 075°11'0 0.0
2018-May-17 22:58N 39°53' W 075°11'0 0.0
2018-May-17 22:31N 39°53' W 075°11'0 0.0
2018-May-17 22:00N 39°53' W 075°11'1 2.9
2018-May-17 21:31N 39°53' W 075°09'5 9.5
2018-May-17 21:00N 39°58' W 075°08'2 3.1
2018-May-17 20:30N 39°59' W 075°06'0 0.2
2018-May-17 20:00N 39°59' W 075°06'0 0.0
2018-May-17 19:31N 39°59' W 075°06'0 0.0
2018-May-17 19:00N 39°59' W 075°06'0 0.0
2018-May-17 18:30N 39°59' W 075°06'0 0.0
2018-May-17 18:01N 39°59' W 075°06'0 0.0
2018-May-17 17:31N 39°59' W 075°06'0 0.0
2018-May-17 17:00N 39°59' W 075°06'0 0.0
2018-May-17 16:30N 39°59' W 075°06'0 0.5
2018-May-17 16:01N 39°59' W 075°06'2 3.3
2018-May-17 15:30N 39°58' W 075°07'4 8.0
2018-May-17 15:01N 39°54' W 075°08'2 4.2
2018-May-17 14:31N 39°53' W 075°11'0 0.0
2018-May-17 14:01N 39°53' W 075°11'0 0.0
2018-May-17 13:30N 39°53' W 075°11'2 4.0
2018-May-17 13:01N 39°52' W 075°13'4 8.6
2018-May-17 12:30N 39°51' W 075°18'5 9.5
2018-May-17 12:00N 39°49' W 075°24'5 9.7
2018-May-17 11:31N 39°46' W 075°29'510.3
2018-May-17 11:00N 39°41' W 075°31'5 9.8
2018-May-17 10:30N 39°37' W 075°35'2 4.1
2018-May-17 10:01N 39°35' W 075°35'1 1.4
2018-May-17 09:30N 39°35' W 075°36'3 6.0
2018-May-17 09:00N 39°33' W 075°33'0 0.8
2018-May-17 08:30N 39°33' W 075°33'0 0.2
2018-May-17 08:01N 39°33' W 075°33'5 8.9
2018-May-17 07:30N 39°37' W 075°35'611.6
2018-May-17 07:00N 39°42' W 075°31'510.8
2018-May-17 06:30N 39°47' W 075°28'5 9.9
2018-May-17 06:00N 39°50' W 075°22'510.6
2018-May-17 05:31N 39°51' W 075°16'5 8.9
2018-May-17 05:00N 39°53' W 075°11'0 0.0
2018-May-17 04:30N 39°53' W 075°11'0 0.0
2018-May-17 04:00N 39°53' W 075°11'0 0.0
2018-May-17 03:30N 39°53' W 075°11'0 0.0
2018-May-17 03:01N 39°53' W 075°11'0 0.0
2018-May-17 02:30N 39°53' W 075°11'0 0.0
2018-May-17 02:00N 39°53' W 075°11'0 0.0
2018-May-17 01:30N 39°53' W 075°11'0 0.0
2018-May-17 01:01N 39°53' W 075°11'0 0.0
2018-May-17 00:31N 39°53' W 075°11'0 0.0
2018-May-16 23:59N 39°53' W 075°11'0 0.0
2018-May-16 23:30N 39°53' W 075°11'0 0.0
2018-May-16 23:00N 39°53' W 075°11'0 0.0
2018-May-16 22:30N 39°53' W 075°11'0 0.0
2018-May-16 22:00N 39°53' W 075°11'0 0.0
2018-May-16 21:30N 39°53' W 075°11'0 0.0
2018-May-16 21:01N 39°53' W 075°11'0 0.0
2018-May-16 20:30N 39°53' W 075°11'0 0.0
2018-May-16 20:00N 39°53' W 075°11'0 0.0
2018-May-16 19:30N 39°53' W 075°11'0 0.0
2018-May-16 19:00N 39°53' W 075°11'0 0.0
2018-May-16 18:30N 39°53' W 075°11'0 0.0
2018-May-16 18:00N 39°53' W 075°11'0 0.0
2018-May-16 17:30N 39°53' W 075°11'0 0.0
2018-May-16 17:00N 39°53' W 075°11'0 0.0
2018-May-16 16:30N 39°53' W 075°11'0 0.1
2018-May-16 16:00N 39°53' W 075°11'0 0.0
2018-May-16 15:30N 39°53' W 075°11'0 0.0
2018-May-16 15:00N 39°53' W 075°11'0 0.1
2018-May-16 14:30N 39°53' W 075°11'0 0.0
2018-May-16 14:00N 39°53' W 075°11'0 0.0
2018-May-16 13:30N 39°53' W 075°11'0 0.0
2018-May-16 13:00N 39°53' W 075°11'0 0.0
2018-May-16 12:30N 39°53' W 075°11'0 0.0
2018-May-16 12:00N 39°53' W 075°11'0 0.0
2018-May-16 11:31N 39°53' W 075°11'0 0.0
2018-May-16 11:00N 39°53' W 075°11'0 0.0
2018-May-16 10:30N 39°53' W 075°11'0 0.0
2018-May-16 10:00N 39°53' W 075°11'1 2.5
2018-May-16 09:30N 39°53' W 075°09'1 2.1
2018-May-16 09:00N 39°53' W 075°10'1 2.9
2018-May-16 08:30N 39°54' W 075°12'1 2.5
2018-May-16 08:00N 39°53' W 075°11'0 0.0
2018-May-16 07:31N 39°53' W 075°11'0 0.0
2018-May-16 07:00N 39°53' W 075°11'0 0.0
2018-May-16 06:30N 39°53' W 075°11'0 0.0
2018-May-16 06:00N 39°53' W 075°11'0 0.0
2018-May-16 05:30N 39°53' W 075°11'0 0.0
2018-May-16 05:00N 39°53' W 075°11'0 0.0
2018-May-16 04:30N 39°53' W 075°11'0 0.0
2018-May-16 04:00N 39°53' W 075°11'0 0.0
2018-May-16 03:30N 39°53' W 075°11'0 0.0
2018-May-16 03:00N 39°53' W 075°11'0 0.0
2018-May-16 02:30N 39°53' W 075°11'0 0.0
2018-May-16 02:00N 39°53' W 075°11'0 0.0
2018-May-16 01:30N 39°53' W 075°11'0 0.0
2018-May-16 01:00N 39°53' W 075°11'0 0.0
2018-May-16 00:30N 39°53' W 075°11'0 0.0
2018-May-16 00:00N 39°53' W 075°11'0 0.0
2018-May-15 23:30N 39°53' W 075°11'0 0.0
2018-May-15 23:00N 39°53' W 075°11'0 0.0
2018-May-15 22:30N 39°53' W 075°11'0 0.0
2018-May-15 22:00N 39°53' W 075°11'0 0.0
2018-May-15 21:30N 39°53' W 075°11'0 0.0
2018-May-15 21:00N 39°53' W 075°11'2 4.1
2018-May-15 20:30N 39°54' W 075°08'5 9.8
2018-May-15 20:00N 39°58' W 075°06'0 0.9
2018-May-15 19:30N 39°59' W 075°06'0 0.4
2018-May-15 18:59N 39°59' W 075°06'0 0.0
2018-May-15 18:30N 39°59' W 075°06'1 2.4
2018-May-15 18:00N 39°58' W 075°07'4 7.8
2018-May-15 17:30N 39°54' W 075°08'2 4.7
2018-May-15 17:01N 39°53' W 075°11'0 0.0
2018-May-15 16:30N 39°53' W 075°11'0 0.0
2018-May-15 16:00N 39°53' W 075°11'0 0.0
2018-May-15 15:30N 39°53' W 075°11'0 0.0
2018-May-15 15:01N 39°53' W 075°11'0 0.0
2018-May-15 14:31N 39°53' W 075°11'0 0.0
2018-May-15 14:01N 39°53' W 075°11'2 4.4
2018-May-15 13:30N 39°54' W 075°08'0 0.3
2018-May-15 13:00N 39°54' W 075°08'2 3.2
2018-May-15 12:28N 39°53' W 075°09'1 1.9
2018-May-15 11:59N 39°53' W 075°11'0 0.0
2018-May-15 11:30N 39°53' W 075°11'0 0.0
2018-May-15 11:01N 39°53' W 075°11'0 0.0
2018-May-15 10:31N 39°53' W 075°11'0 0.0
2018-May-15 10:01N 39°53' W 075°11'0 0.0
2018-May-15 09:30N 39°53' W 075°11'0 0.0
2018-May-15 09:00N 39°53' W 075°11'0 0.0
2018-May-15 08:30N 39°53' W 075°11'0 0.0
2018-May-15 08:00N 39°53' W 075°11'0 0.9
2018-May-15 07:30N 39°53' W 075°11'4 8.9
2018-May-15 07:00N 39°51' W 075°16'5 9.5
2018-May-15 06:30N 39°50' W 075°22'3 5.3
2018-May-15 06:00N 39°48' W 075°25'0 0.0
2018-May-15 05:30N 39°48' W 075°25'1 1.3
2018-May-15 05:00N 39°48' W 075°26'1 2.8
2018-May-15 04:30N 39°49' W 075°24'5 9.5
2018-May-15 04:00N 39°51' W 075°19'5 9.5
2018-May-15 03:31N 39°52' W 075°13'2 3.8
2018-May-15 03:00N 39°53' W 075°11'0 0.0
2018-May-15 02:30N 39°53' W 075°11'0 0.0
2018-May-15 02:01N 39°53' W 075°11'0 0.0
2018-May-15 01:31N 39°53' W 075°11'0 0.0
2018-May-15 01:00N 39°53' W 075°11'0 0.0
2018-May-15 00:31N 39°53' W 075°11'0 0.0
2018-May-15 00:01N 39°53' W 075°11'2 4.5
2018-May-14 23:31N 39°54' W 075°08'5 9.5
2018-May-14 23:00N 39°59' W 075°06'0 0.3
2018-May-14 22:30N 39°59' W 075°06'0 0.0
2018-May-14 22:00N 39°59' W 075°06'0 0.0
2018-May-14 21:30N 39°59' W 075°06'0 0.0
2018-May-14 21:00N 39°59' W 075°06'  

Dump ship's entire track history